sensor_id;sensor_type;location;lat;lon;timestamp;temperature;humidity
29855;DHT22;16733;48.738;9.106;2022-09-21T00:04:28;7.90;99.90
29855;DHT22;16733;48.738;9.106;2022-09-21T00:06:54;7.80;99.90
29855;DHT22;16733;48.738;9.106;2022-09-21T00:12:41;7.80;99.90
29855;DHT22;16733;48.738;9.106;2022-09-21T00:15:09;7.70;99.90
29855;DHT22;16733;48.738;9.106;2022-09-21T00:20:57;7.70;99.90
29855;DHT22;16733;48.738;9.106;2022-09-21T00:23:22;7.70;99.90
29855;DHT22;16733;48.738;9.106;2022-09-21T00:25:48;7.70;99.90
29855;DHT22;16733;48.738;9.106;2022-09-21T00:31:36;7.60;99.90
29855;DHT22;16733;48.738;9.106;2022-09-21T00:34:01;7.60;99.90
29855;DHT22;16733;48.738;9.106;2022-09-21T00:39:50;7.60;99.90
29855;DHT22;16733;48.738;9.106;2022-09-21T00:42:21;7.60;99.90
29855;DHT22;16733;48.738;9.106;2022-09-21T00:44:47;7.60;99.90
29855;DHT22;16733;48.738;9.106;2022-09-21T00:47:36;7.60;99.90
29855;DHT22;16733;48.738;9.106;2022-09-21T00:50:03;7.60;99.90
29855;DHT22;16733;48.738;9.106;2022-09-21T00:52:32;7.70;99.90
29855;DHT22;16733;48.738;9.106;2022-09-21T00:58:25;7.60;99.90
29855;DHT22;16733;48.738;9.106;2022-09-21T01:00:53;7.60;99.90
29855;DHT22;16733;48.738;9.106;2022-09-21T01:06:41;7.60;99.90
29855;DHT22;16733;48.738;9.106;2022-09-21T01:09:08;7.60;99.90
29855;DHT22;16733;48.738;9.106;2022-09-21T01:26:32;7.40;99.90
29855;DHT22;16733;48.738;9.106;2022-09-21T01:31:32;7.40;99.90
29855;DHT22;16733;48.738;9.106;2022-09-21T01:34:35;7.40;99.90
29855;DHT22;16733;48.738;9.106;2022-09-21T01:44:09;7.40;99.90
29855;DHT22;16733;48.738;9.106;2022-09-21T01:46:37;7.30;99.90
29855;DHT22;16733;48.738;9.106;2022-09-21T01:52:41;7.30;99.90
29855;DHT22;16733;48.738;9.106;2022-09-21T01:58:41;7.20;99.90
29855;DHT22;16733;48.738;9.106;2022-09-21T02:01:14;7.20;99.90
29855;DHT22;16733;48.738;9.106;2022-09-21T02:07:03;7.20;99.90
29855;DHT22;16733;48.738;9.106;2022-09-21T02:09:29;7.10;99.90
29855;DHT22;16733;48.738;9.106;2022-09-21T02:11:54;7.10;99.90
29855;DHT22;16733;48.738;9.106;2022-09-21T02:14:23;7.10;99.90
29855;DHT22;16733;48.738;9.106;2022-09-21T02:17:04;7.00;99.90
29855;DHT22;16733;48.738;9.106;2022-09-21T02:19:56;7.00;99.90
29855;DHT22;16733;48.738;9.106;2022-09-21T02:26:07;6.90;99.90
29855;DHT22;16733;48.738;9.106;2022-09-21T02:29:04;6.80;99.90
29855;DHT22;16733;48.738;9.106;2022-09-21T02:34:07;6.80;99.90
29855;DHT22;16733;48.738;9.106;2022-09-21T02:42:30;6.80;99.90
29855;DHT22;16733;48.738;9.106;2022-09-21T02:48:25;6.70;99.90
29855;DHT22;16733;48.738;9.106;2022-09-21T02:50:58;6.70;99.90
29855;DHT22;16733;48.738;9.106;2022-09-21T02:53:29;6.70;99.90
29855;DHT22;16733;48.738;9.106;2022-09-21T02:55:59;6.70;99.90
29855;DHT22;16733;48.738;9.106;2022-09-21T02:58:29;6.70;99.90
29855;DHT22;16733;48.738;9.106;2022-09-21T03:00:57;6.60;99.90
29855;DHT22;16733;48.738;9.106;2022-09-21T03:03:24;6.60;99.90
29855;DHT22;16733;48.738;9.106;2022-09-21T03:05:52;6.60;99.90
29855;DHT22;16733;48.738;9.106;2022-09-21T03:08:19;6.60;99.90
29855;DHT22;16733;48.738;9.106;2022-09-21T03:10:45;6.60;99.90
29855;DHT22;16733;48.738;9.106;2022-09-21T03:13:11;6.60;99.90
29855;DHT22;16733;48.738;9.106;2022-09-21T03:15:40;6.50;99.90
29855;DHT22;16733;48.738;9.106;2022-09-21T03:18:07;6.60;99.90
29855;DHT22;16733;48.738;9.106;2022-09-21T03:20:35;6.50;99.90
29855;DHT22;16733;48.738;9.106;2022-09-21T03:23:19;6.50;99.90
29855;DHT22;16733;48.738;9.106;2022-09-21T03:25:45;6.50;99.90
29855;DHT22;16733;48.738;9.106;2022-09-21T03:28:11;6.50;99.90
29855;DHT22;16733;48.738;9.106;2022-09-21T03:30:38;6.50;99.90
29855;DHT22;16733;48.738;9.106;2022-09-21T03:33:04;6.50;99.90
29855;DHT22;16733;48.738;9.106;2022-09-21T03:35:31;6.50;99.90
29855;DHT22;16733;48.738;9.106;2022-09-21T03:38:00;6.40;99.90
29855;DHT22;16733;48.738;9.106;2022-09-21T03:40:26;6.40;99.90
29855;DHT22;16733;48.738;9.106;2022-09-21T03:42:53;6.30;99.90
29855;DHT22;16733;48.738;9.106;2022-09-21T03:45:19;6.40;99.90
29855;DHT22;16733;48.738;9.106;2022-09-21T03:47:46;6.40;99.90
29855;DHT22;16733;48.738;9.106;2022-09-21T03:50:12;6.40;99.90
29855;DHT22;16733;48.738;9.106;2022-09-21T03:52:38;6.40;99.90
29855;DHT22;16733;48.738;9.106;2022-09-21T03:55:05;6.40;99.90
29855;DHT22;16733;48.738;9.106;2022-09-21T03:57:35;6.40;99.90
29855;DHT22;16733;48.738;9.106;2022-09-21T04:00:02;6.50;99.90
29855;DHT22;16733;48.738;9.106;2022-09-21T04:02:29;6.50;99.90
29855;DHT22;16733;48.738;9.106;2022-09-21T04:04:54;6.50;99.90
29855;DHT22;16733;48.738;9.106;2022-09-21T04:07:20;6.50;99.90
29855;DHT22;16733;48.738;9.106;2022-09-21T04:09:46;6.40;99.90
29855;DHT22;16733;48.738;9.106;2022-09-21T04:12:11;6.50;99.90
29855;DHT22;16733;48.738;9.106;2022-09-21T04:14:39;6.50;99.90
29855;DHT22;16733;48.738;9.106;2022-09-21T04:17:05;6.50;99.90
29855;DHT22;16733;48.738;9.106;2022-09-21T04:19:30;6.50;99.90
29855;DHT22;16733;48.738;9.106;2022-09-21T04:21:56;6.50;99.90
29855;DHT22;16733;48.738;9.106;2022-09-21T04:24:22;6.50;99.90
29855;DHT22;16733;48.738;9.106;2022-09-21T04:26:47;6.40;99.90
29855;DHT22;16733;48.738;9.106;2022-09-21T04:29:14;6.40;99.90
29855;DHT22;16733;48.738;9.106;2022-09-21T04:31:39;6.40;99.90
29855;DHT22;16733;48.738;9.106;2022-09-21T04:34:05;6.40;99.90
29855;DHT22;16733;48.738;9.106;2022-09-21T04:36:31;6.30;99.90
29855;DHT22;16733;48.738;9.106;2022-09-21T04:38:59;6.30;99.90
29855;DHT22;16733;48.738;9.106;2022-09-21T04:41:25;6.30;99.90
29855;DHT22;16733;48.738;9.106;2022-09-21T04:43:51;6.30;99.90
29855;DHT22;16733;48.738;9.106;2022-09-21T04:46:18;6.30;99.90
29855;DHT22;16733;48.738;9.106;2022-09-21T04:48:45;6.20;99.90
29855;DHT22;16733;48.738;9.106;2022-09-21T04:51:11;6.20;99.90
29855;DHT22;16733;48.738;9.106;2022-09-21T04:53:39;6.20;99.90
29855;DHT22;16733;48.738;9.106;2022-09-21T04:56:11;6.20;99.90
29855;DHT22;16733;48.738;9.106;2022-09-21T04:58:37;6.20;99.90
29855;DHT22;16733;48.738;9.106;2022-09-21T05:01:03;6.30;99.90
29855;DHT22;16733;48.738;9.106;2022-09-21T05:03:30;6.30;99.90
29855;DHT22;16733;48.738;9.106;2022-09-21T05:05:56;6.30;99.90
29855;DHT22;16733;48.738;9.106;2022-09-21T05:08:24;6.30;99.90
29855;DHT22;16733;48.738;9.106;2022-09-21T05:11:11;6.30;99.90
29855;DHT22;16733;48.738;9.106;2022-09-21T05:13:43;6.30;99.90
29855;DHT22;16733;48.738;9.106;2022-09-21T05:16:12;6.30;99.90
29855;DHT22;16733;48.738;9.106;2022-09-21T05:18:38;6.30;99.90
29855;DHT22;16733;48.738;9.106;2022-09-21T05:21:04;6.30;99.90
29855;DHT22;16733;48.738;9.106;2022-09-21T05:23:30;6.30;99.90
29855;DHT22;16733;48.738;9.106;2022-09-21T05:25:57;6.20;99.90
29855;DHT22;16733;48.738;9.106;2022-09-21T05:28:24;6.30;99.90
29855;DHT22;16733;48.738;9.106;2022-09-21T05:31:01;6.30;99.90
29855;DHT22;16733;48.738;9.106;2022-09-21T05:33:29;6.30;99.90
29855;DHT22;16733;48.738;9.106;2022-09-21T05:38:53;6.40;99.90
29855;DHT22;16733;48.738;9.106;2022-09-21T05:41:19;6.40;99.90
29855;DHT22;16733;48.738;9.106;2022-09-21T05:43:45;6.30;99.90
29855;DHT22;16733;48.738;9.106;2022-09-21T05:46:19;6.20;99.90
29855;DHT22;16733;48.738;9.106;2022-09-21T05:48:55;6.20;99.90
29855;DHT22;16733;48.738;9.106;2022-09-21T05:57:13;6.30;99.90
29855;DHT22;16733;48.738;9.106;2022-09-21T06:00:00;6.40;99.90
29855;DHT22;16733;48.738;9.106;2022-09-21T06:05:27;6.50;99.90
29855;DHT22;16733;48.738;9.106;2022-09-21T06:07:53;6.50;99.90
29855;DHT22;16733;48.738;9.106;2022-09-21T06:10:21;6.50;99.90
29855;DHT22;16733;48.738;9.106;2022-09-21T06:12:49;6.60;99.90
29855;DHT22;16733;48.738;9.106;2022-09-21T06:15:15;6.70;99.90
29855;DHT22;16733;48.738;9.106;2022-09-21T06:17:41;6.70;99.90
29855;DHT22;16733;48.738;9.106;2022-09-21T06:20:07;6.80;99.90
29855;DHT22;16733;48.738;9.106;2022-09-21T06:22:33;6.80;99.90
29855;DHT22;16733;48.738;9.106;2022-09-21T06:24:59;6.90;99.90
29855;DHT22;16733;48.738;9.106;2022-09-21T06:27:24;6.90;99.90
29855;DHT22;16733;48.738;9.106;2022-09-21T06:29:51;7.00;99.90
29855;DHT22;16733;48.738;9.106;2022-09-21T06:32:17;7.00;99.90
29855;DHT22;16733;48.738;9.106;2022-09-21T06:34:42;7.10;99.90
29855;DHT22;16733;48.738;9.106;2022-09-21T06:37:08;7.20;99.90
29855;DHT22;16733;48.738;9.106;2022-09-21T06:39:34;7.30;99.90
29855;DHT22;16733;48.738;9.106;2022-09-21T06:41:59;7.30;99.90
29855;DHT22;16733;48.738;9.106;2022-09-21T06:44:25;7.50;99.90
29855;DHT22;16733;48.738;9.106;2022-09-21T06:46:51;7.60;99.90
29855;DHT22;16733;48.738;9.106;2022-09-21T06:52:39;7.90;99.90
29855;DHT22;16733;48.738;9.106;2022-09-21T06:55:06;8.00;99.90
29855;DHT22;16733;48.738;9.106;2022-09-21T07:00:54;8.20;99.90
29855;DHT22;16733;48.738;9.106;2022-09-21T07:03:20;8.30;99.90
29855;DHT22;16733;48.738;9.106;2022-09-21T07:09:08;8.50;99.90
29855;DHT22;16733;48.738;9.106;2022-09-21T07:21:40;8.80;99.90
29855;DHT22;16733;48.738;9.106;2022-09-21T07:27:29;8.90;99.90
29855;DHT22;16733;48.738;9.106;2022-09-21T07:29:55;9.00;99.90
29855;DHT22;16733;48.738;9.106;2022-09-21T07:39:05;9.20;99.90
29855;DHT22;16733;48.738;9.106;2022-09-21T07:41:33;9.20;99.90
29855;DHT22;16733;48.738;9.106;2022-09-21T07:43:59;9.30;99.90
29855;DHT22;16733;48.738;9.106;2022-09-21T07:46:25;9.40;99.90
29855;DHT22;16733;48.738;9.106;2022-09-21T07:48:53;9.40;99.90
29855;DHT22;16733;48.738;9.106;2022-09-21T07:51:19;9.50;99.90
29855;DHT22;16733;48.738;9.106;2022-09-21T07:53:45;9.50;99.90
29855;DHT22;16733;48.738;9.106;2022-09-21T07:59:15;9.70;99.90
29855;DHT22;16733;48.738;9.106;2022-09-21T08:01:41;9.80;99.90
29855;DHT22;16733;48.738;9.106;2022-09-21T08:04:09;9.80;99.90
29855;DHT22;16733;48.738;9.106;2022-09-21T08:06:36;9.90;99.90
29855;DHT22;16733;48.738;9.106;2022-09-21T08:15:59;10.20;99.90
29855;DHT22;16733;48.738;9.106;2022-09-21T08:18:25;10.30;99.90
29855;DHT22;16733;48.738;9.106;2022-09-21T08:20:58;10.30;99.90
29855;DHT22;16733;48.738;9.106;2022-09-21T08:26:46;10.50;99.90
29855;DHT22;16733;48.738;9.106;2022-09-21T08:29:12;10.60;99.90
29855;DHT22;16733;48.738;9.106;2022-09-21T08:34:42;10.70;99.90
29855;DHT22;16733;48.738;9.106;2022-09-21T08:37:07;10.80;99.90
29855;DHT22;16733;48.738;9.106;2022-09-21T08:39:33;10.90;99.90
29855;DHT22;16733;48.738;9.106;2022-09-21T08:44:48;11.00;99.90
29855;DHT22;16733;48.738;9.106;2022-09-21T08:47:44;11.10;99.90
29855;DHT22;16733;48.738;9.106;2022-09-21T08:50:39;11.20;99.90
29855;DHT22;16733;48.738;9.106;2022-09-21T08:53:32;11.30;99.90
29855;DHT22;16733;48.738;9.106;2022-09-21T08:59:19;11.50;99.90
29855;DHT22;16733;48.738;9.106;2022-09-21T09:14:09;11.70;99.90
29855;DHT22;16733;48.738;9.106;2022-09-21T09:17:15;11.80;99.90
29855;DHT22;16733;48.738;9.106;2022-09-21T09:19:50;12.00;99.90
29855;DHT22;16733;48.738;9.106;2022-09-21T09:22:27;12.10;99.90
29855;DHT22;16733;48.738;9.106;2022-09-21T09:24:57;12.20;99.90
29855;DHT22;16733;48.738;9.106;2022-09-21T09:27:35;12.20;99.90
29855;DHT22;16733;48.738;9.106;2022-09-21T09:33:05;12.30;99.90
29855;DHT22;16733;48.738;9.106;2022-09-21T09:35:39;12.40;99.90
29855;DHT22;16733;48.738;9.106;2022-09-21T09:38:10;12.40;99.90
29855;DHT22;16733;48.738;9.106;2022-09-21T09:43:51;12.50;99.90
29855;DHT22;16733;48.738;9.106;2022-09-21T09:46:56;12.70;99.90
29855;DHT22;16733;48.738;9.106;2022-09-21T10:03:15;13.20;99.90
29855;DHT22;16733;48.738;9.106;2022-09-21T10:05:41;13.30;99.90
29855;DHT22;16733;48.738;9.106;2022-09-21T10:11:36;13.40;99.90
29855;DHT22;16733;48.738;9.106;2022-09-21T10:14:11;13.40;99.90
29855;DHT22;16733;48.738;9.106;2022-09-21T10:16:40;13.40;99.90
29855;DHT22;16733;48.738;9.106;2022-09-21T10:19:14;13.40;99.90
29855;DHT22;16733;48.738;9.106;2022-09-21T10:21:40;13.50;99.90
29855;DHT22;16733;48.738;9.106;2022-09-21T10:24:19;13.60;99.90
29855;DHT22;16733;48.738;9.106;2022-09-21T10:26:56;13.80;99.90
29855;DHT22;16733;48.738;9.106;2022-09-21T10:44:15;14.20;99.90
29855;DHT22;16733;48.738;9.106;2022-09-21T10:46:43;14.20;99.90
29855;DHT22;16733;48.738;9.106;2022-09-21T10:49:16;14.20;99.90
29855;DHT22;16733;48.738;9.106;2022-09-21T10:55:14;14.30;99.90
29855;DHT22;16733;48.738;9.106;2022-09-21T11:01:11;14.50;99.90
29855;DHT22;16733;48.738;9.106;2022-09-21T11:10:15;14.70;99.90
29855;DHT22;16733;48.738;9.106;2022-09-21T11:18:55;14.90;99.90
29855;DHT22;16733;48.738;9.106;2022-09-21T11:27:30;14.70;99.50
29855;DHT22;16733;48.738;9.106;2022-09-21T11:39:39;14.90;99.60
29855;DHT22;16733;48.738;9.106;2022-09-21T11:44:55;15.00;97.20
29855;DHT22;16733;48.738;9.106;2022-09-21T12:12:53;15.00;94.80
29855;DHT22;16733;48.738;9.106;2022-09-21T12:15:49;14.90;95.30
29855;DHT22;16733;48.738;9.106;2022-09-21T12:21:12;14.90;96.90
29855;DHT22;16733;48.738;9.106;2022-09-21T12:23:44;14.90;97.20
29855;DHT22;16733;48.738;9.106;2022-09-21T12:26:32;14.90;97.20
29855;DHT22;16733;48.738;9.106;2022-09-21T12:29:06;14.90;96.90
29855;DHT22;16733;48.738;9.106;2022-09-21T12:31:46;14.80;96.60
29855;DHT22;16733;48.738;9.106;2022-09-21T12:37:48;14.90;96.90
29855;DHT22;16733;48.738;9.106;2022-09-21T12:40:22;15.00;97.20
29855;DHT22;16733;48.738;9.106;2022-09-21T12:46:06;14.90;94.80
29855;DHT22;16733;48.738;9.106;2022-09-21T12:48:35;14.80;94.90
29855;DHT22;16733;48.738;9.106;2022-09-21T12:51:32;14.60;94.70
29855;DHT22;16733;48.738;9.106;2022-09-21T12:54:11;14.60;93.80
29855;DHT22;16733;48.738;9.106;2022-09-21T13:03:53;14.70;95.50
29855;DHT22;16733;48.738;9.106;2022-09-21T13:09:20;14.80;95.70
29855;DHT22;16733;48.738;9.106;2022-09-21T13:15:25;14.80;94.70
29855;DHT22;16733;48.738;9.106;2022-09-21T13:24:27;14.50;95.00
29855;DHT22;16733;48.738;9.106;2022-09-21T13:26:58;14.70;95.70
29855;DHT22;16733;48.738;9.106;2022-09-21T13:29:33;14.90;96.00
29855;DHT22;16733;48.738;9.106;2022-09-21T13:32:00;15.20;96.30
29855;DHT22;16733;48.738;9.106;2022-09-21T13:48:12;15.00;92.80
29855;DHT22;16733;48.738;9.106;2022-09-21T14:07:14;14.90;94.30
29855;DHT22;16733;48.738;9.106;2022-09-21T14:09:49;14.90;95.20
29855;DHT22;16733;48.738;9.106;2022-09-21T14:12:22;14.90;94.80
29855;DHT22;16733;48.738;9.106;2022-09-21T14:18:16;14.90;94.50
29855;DHT22;16733;48.738;9.106;2022-09-21T14:23:34;15.10;93.70
29855;DHT22;16733;48.738;9.106;2022-09-21T14:26:01;15.20;94.00
29855;DHT22;16733;48.738;9.106;2022-09-21T14:28:47;15.20;93.50
29855;DHT22;16733;48.738;9.106;2022-09-21T14:31:32;15.20;92.90
29855;DHT22;16733;48.738;9.106;2022-09-21T14:40:47;15.00;91.90
29855;DHT22;16733;48.738;9.106;2022-09-21T14:57:57;15.30;94.60
29855;DHT22;16733;48.738;9.106;2022-09-21T15:07:15;15.70;94.80
29855;DHT22;16733;48.738;9.106;2022-09-21T15:10:33;15.60;93.00
29855;DHT22;16733;48.738;9.106;2022-09-21T15:21:41;14.90;93.20
29855;DHT22;16733;48.738;9.106;2022-09-21T15:26:59;14.90;93.80
29855;DHT22;16733;48.738;9.106;2022-09-21T15:29:28;14.90;94.70
29855;DHT22;16733;48.738;9.106;2022-09-21T15:37:49;15.40;94.40
29855;DHT22;16733;48.738;9.106;2022-09-21T15:40:19;15.50;94.00
29855;DHT22;16733;48.738;9.106;2022-09-21T15:48:42;16.30;92.30
29855;DHT22;16733;48.738;9.106;2022-09-21T15:51:15;16.00;92.30
29855;DHT22;16733;48.738;9.106;2022-09-21T15:53:50;15.80;93.00
29855;DHT22;16733;48.738;9.106;2022-09-21T15:59:43;15.60;93.90
29855;DHT22;16733;48.738;9.106;2022-09-21T16:02:11;15.50;94.40
29855;DHT22;16733;48.738;9.106;2022-09-21T16:04:45;15.40;94.40
29855;DHT22;16733;48.738;9.106;2022-09-21T16:07:25;15.30;94.40
29855;DHT22;16733;48.738;9.106;2022-09-21T16:09:51;15.20;94.40
29855;DHT22;16733;48.738;9.106;2022-09-21T16:15:25;15.00;93.90
29855;DHT22;16733;48.738;9.106;2022-09-21T16:18:01;14.90;93.80
29855;DHT22;16733;48.738;9.106;2022-09-21T16:23:51;14.80;93.80
29855;DHT22;16733;48.738;9.106;2022-09-21T16:26:35;14.70;94.40
29855;DHT22;16733;48.738;9.106;2022-09-21T16:35:45;14.50;93.00
29855;DHT22;16733;48.738;9.106;2022-09-21T16:38:10;14.50;93.40
29855;DHT22;16733;48.738;9.106;2022-09-21T16:40:39;14.40;93.00
29855;DHT22;16733;48.738;9.106;2022-09-21T16:43:05;14.40;92.90
29855;DHT22;16733;48.738;9.106;2022-09-21T16:45:31;14.40;92.80
29855;DHT22;16733;48.738;9.106;2022-09-21T16:47:58;14.30;92.90
29855;DHT22;16733;48.738;9.106;2022-09-21T16:50:24;14.30;93.00
29855;DHT22;16733;48.738;9.106;2022-09-21T16:56:12;14.20;92.80
29855;DHT22;16733;48.738;9.106;2022-09-21T16:58:40;14.20;93.80
29855;DHT22;16733;48.738;9.106;2022-09-21T17:04:31;14.10;93.00
29855;DHT22;16733;48.738;9.106;2022-09-21T17:06:57;14.00;94.10
29855;DHT22;16733;48.738;9.106;2022-09-21T17:12:45;13.90;93.80
29855;DHT22;16733;48.738;9.106;2022-09-21T17:25:17;13.70;94.50
29855;DHT22;16733;48.738;9.106;2022-09-21T17:27:42;13.70;95.20
29855;DHT22;16733;48.738;9.106;2022-09-21T17:33:32;13.50;94.50
29855;DHT22;16733;48.738;9.106;2022-09-21T17:35:58;13.50;95.40
29855;DHT22;16733;48.738;9.106;2022-09-21T17:42:00;13.30;95.00
29855;DHT22;16733;48.738;9.106;2022-09-21T17:49:50;13.10;95.50
29855;DHT22;16733;48.738;9.106;2022-09-21T17:52:20;13.10;96.00
29855;DHT22;16733;48.738;9.106;2022-09-21T18:01:00;12.90;96.60
29855;DHT22;16733;48.738;9.106;2022-09-21T18:06:50;12.70;96.20
29855;DHT22;16733;48.738;9.106;2022-09-21T18:19:28;12.40;96.90
29855;DHT22;16733;48.738;9.106;2022-09-21T18:25:30;12.20;97.30
29855;DHT22;16733;48.738;9.106;2022-09-21T18:27:57;12.10;97.70
29855;DHT22;16733;48.738;9.106;2022-09-21T18:42:26;11.80;98.30
29855;DHT22;16733;48.738;9.106;2022-09-21T18:45:11;11.80;98.10
29855;DHT22;16733;48.738;9.106;2022-09-21T18:50:25;11.60;98.30
29855;DHT22;16733;48.738;9.106;2022-09-21T18:56:17;11.50;98.50
29855;DHT22;16733;48.738;9.106;2022-09-21T18:58:43;11.40;99.10
29855;DHT22;16733;48.738;9.106;2022-09-21T19:01:13;11.40;98.90
29855;DHT22;16733;48.738;9.106;2022-09-21T19:03:40;11.30;98.90
29855;DHT22;16733;48.738;9.106;2022-09-21T19:14:36;11.00;99.40
29855;DHT22;16733;48.738;9.106;2022-09-21T19:25:45;10.80;99.70
29855;DHT22;16733;48.738;9.106;2022-09-21T19:31:09;10.80;99.80
29855;DHT22;16733;48.738;9.106;2022-09-21T19:33:36;10.70;99.90
29855;DHT22;16733;48.738;9.106;2022-09-21T19:36:01;10.70;99.90
29855;DHT22;16733;48.738;9.106;2022-09-21T19:38:28;10.70;99.90
29855;DHT22;16733;48.738;9.106;2022-09-21T19:44:05;10.60;99.90
29855;DHT22;16733;48.738;9.106;2022-09-21T19:46:45;10.50;99.90
29855;DHT22;16733;48.738;9.106;2022-09-21T19:52:34;10.40;99.90
29855;DHT22;16733;48.738;9.106;2022-09-21T19:55:01;10.30;99.90
29855;DHT22;16733;48.738;9.106;2022-09-21T19:57:45;10.30;99.90
29855;DHT22;16733;48.738;9.106;2022-09-21T20:18:46;9.90;99.90
29855;DHT22;16733;48.738;9.106;2022-09-21T20:21:16;9.80;99.90
29855;DHT22;16733;48.738;9.106;2022-09-21T20:23:44;9.80;99.90
29855;DHT22;16733;48.738;9.106;2022-09-21T20:26:24;9.70;99.90
29855;DHT22;16733;48.738;9.106;2022-09-21T20:28:51;9.70;99.90
29855;DHT22;16733;48.738;9.106;2022-09-21T20:31:24;9.70;99.90
29855;DHT22;16733;48.738;9.106;2022-09-21T20:33:49;9.60;99.90
29855;DHT22;16733;48.738;9.106;2022-09-21T20:39:18;9.60;99.90
29855;DHT22;16733;48.738;9.106;2022-09-21T20:41:44;9.60;99.90
29855;DHT22;16733;48.738;9.106;2022-09-21T20:44:11;9.50;99.90
29855;DHT22;16733;48.738;9.106;2022-09-21T20:46:37;9.50;99.90
29855;DHT22;16733;48.738;9.106;2022-09-21T20:49:03;9.50;99.90
29855;DHT22;16733;48.738;9.106;2022-09-21T20:51:32;9.40;99.90
29855;DHT22;16733;48.738;9.106;2022-09-21T20:53:59;9.30;99.90
29855;DHT22;16733;48.738;9.106;2022-09-21T20:56:27;9.30;99.90
29855;DHT22;16733;48.738;9.106;2022-09-21T20:58:53;9.20;99.90
29855;DHT22;16733;48.738;9.106;2022-09-21T21:04:41;9.10;99.90
29855;DHT22;16733;48.738;9.106;2022-09-21T21:07:06;9.00;99.90
29855;DHT22;16733;48.738;9.106;2022-09-21T21:09:32;9.10;99.90
29855;DHT22;16733;48.738;9.106;2022-09-21T21:11:58;9.00;99.90
29855;DHT22;16733;48.738;9.106;2022-09-21T21:14:23;9.00;99.90
29855;DHT22;16733;48.738;9.106;2022-09-21T21:16:50;9.00;99.90
29855;DHT22;16733;48.738;9.106;2022-09-21T21:19:16;9.00;99.90
29855;DHT22;16733;48.738;9.106;2022-09-21T21:21:42;9.00;99.90
29855;DHT22;16733;48.738;9.106;2022-09-21T21:24:07;9.00;99.90
29855;DHT22;16733;48.738;9.106;2022-09-21T21:30:14;8.90;99.90
29855;DHT22;16733;48.738;9.106;2022-09-21T21:32:40;8.90;99.90
29855;DHT22;16733;48.738;9.106;2022-09-21T21:35:07;8.90;99.90
29855;DHT22;16733;48.738;9.106;2022-09-21T21:37:33;8.90;99.90
29855;DHT22;16733;48.738;9.106;2022-09-21T21:39:59;8.80;99.90
29855;DHT22;16733;48.738;9.106;2022-09-21T21:42:25;8.90;99.90
29855;DHT22;16733;48.738;9.106;2022-09-21T21:48:13;8.80;99.90
29855;DHT22;16733;48.738;9.106;2022-09-21T21:50:38;8.80;99.90
29855;DHT22;16733;48.738;9.106;2022-09-21T21:53:04;8.80;99.90
29855;DHT22;16733;48.738;9.106;2022-09-21T21:55:29;8.70;99.90
29855;DHT22;16733;48.738;9.106;2022-09-21T21:57:55;8.70;99.90
29855;DHT22;16733;48.738;9.106;2022-09-21T22:00:21;8.70;99.90
29855;DHT22;16733;48.738;9.106;2022-09-21T22:02:47;8.70;99.90
29855;DHT22;16733;48.738;9.106;2022-09-21T22:05:13;8.60;99.90
29855;DHT22;16733;48.738;9.106;2022-09-21T22:11:00;8.60;99.90
29855;DHT22;16733;48.738;9.106;2022-09-21T22:13:27;8.60;99.90
29855;DHT22;16733;48.738;9.106;2022-09-21T22:19:18;8.60;99.90
29855;DHT22;16733;48.738;9.106;2022-09-21T22:21:44;8.50;99.90
29855;DHT22;16733;48.738;9.106;2022-09-21T22:27:33;8.50;99.90
29855;DHT22;16733;48.738;9.106;2022-09-21T22:29:58;8.50;99.90
29855;DHT22;16733;48.738;9.106;2022-09-21T22:32:24;8.50;99.90
29855;DHT22;16733;48.738;9.106;2022-09-21T22:34:49;8.50;99.90
29855;DHT22;16733;48.738;9.106;2022-09-21T22:37:15;8.50;99.90
29855;DHT22;16733;48.738;9.106;2022-09-21T22:39:40;8.50;99.90
29855;DHT22;16733;48.738;9.106;2022-09-21T22:42:09;8.50;99.90
29855;DHT22;16733;48.738;9.106;2022-09-21T22:44:35;8.40;99.90
29855;DHT22;16733;48.738;9.106;2022-09-21T22:47:01;8.40;99.90
29855;DHT22;16733;48.738;9.106;2022-09-21T22:52:48;8.40;99.90
29855;DHT22;16733;48.738;9.106;2022-09-21T22:55:14;8.40;99.90
29855;DHT22;16733;48.738;9.106;2022-09-21T22:57:39;8.40;99.90
29855;DHT22;16733;48.738;9.106;2022-09-21T23:00:05;8.30;99.90
29855;DHT22;16733;48.738;9.106;2022-09-21T23:02:31;8.30;99.90
29855;DHT22;16733;48.738;9.106;2022-09-21T23:04:58;8.20;99.90
29855;DHT22;16733;48.738;9.106;2022-09-21T23:07:24;8.20;99.90
29855;DHT22;16733;48.738;9.106;2022-09-21T23:09:49;8.20;99.90
29855;DHT22;16733;48.738;9.106;2022-09-21T23:12:15;8.10;99.90
29855;DHT22;16733;48.738;9.106;2022-09-21T23:14:40;8.20;99.90
29855;DHT22;16733;48.738;9.106;2022-09-21T23:17:06;8.10;99.90
29855;DHT22;16733;48.738;9.106;2022-09-21T23:19:32;8.10;99.90
29855;DHT22;16733;48.738;9.106;2022-09-21T23:21:57;8.00;99.90
29855;DHT22;16733;48.738;9.106;2022-09-21T23:24:23;8.10;99.90
29855;DHT22;16733;48.738;9.106;2022-09-21T23:30:11;8.00;99.90
29855;DHT22;16733;48.738;9.106;2022-09-21T23:32:36;8.00;99.90
29855;DHT22;16733;48.738;9.106;2022-09-21T23:38:24;8.00;99.90
29855;DHT22;16733;48.738;9.106;2022-09-21T23:40:51;7.90;99.90
29855;DHT22;16733;48.738;9.106;2022-09-21T23:43:16;7.90;99.90
29855;DHT22;16733;48.738;9.106;2022-09-21T23:49:05;8.00;99.90
29855;DHT22;16733;48.738;9.106;2022-09-21T23:51:31;7.90;99.90
29855;DHT22;16733;48.738;9.106;2022-09-21T23:57:21;7.90;99.90
29855;DHT22;16733;48.738;9.106;2022-09-21T23:59:47;7.90;99.90
